Details for Ryanair at LPFR




Go Back


Latest METAR
Local Time

LPFR 252200Z 23003KT 9999 FEW010 16/15 Q1013

25/05/2018, 23:26:44

Description
Results
Ryanair Logo
Number of Pilots based at LPFR
0 Pilots Based here
Number of Ryanair Flights Departed from LPFR
17 Flights Departed
Number of Ryanair Flights Arrived at LPFR
13 Flights Arrived
Number of Ryanair Schedules Departing from LPFR
75 Schedules
Number of Ryanair Schedules Arriving at LPFR
73 Schedules
Number of Ryanair Schedules Departing from LPFR availible today
30 Schedules Today
Number of Ryanair Schedules Arriving at LPFR availible today
30 Schedules Today
Average Landing Rate at LPFR
-186 fpm
Ryanair Average Landing Rate at LPFR
-186 fpm
Total Fuel Purchased at LPFR by Ryanair
125,923.09 kgs / 277,610.04 lbs

Pilots Based at LPFR


Pilot ID
Pilot Name
Pilot Rank
No. of Flights
No. of Flying Hours
There are no pilots assigned to this hub!   Will you be the first?
Content